Terminal Aerodrome Forecast
Issued by NWS

Home | Current Version | Previous Version | Text Only | Print | Product List | Glossary On
Versions: 1 2 3 4 5 6 7 8 9 10 11 12 13 14 15
000
FTUS46 KSEW 270500
TAFHQM
TAF
KHQM 270532Z 2706/2806 03005KT 2SM BR BKN008 OVC012
     FM270900 06004KT P6SM -RA OVC005
     FM271300 21008KT 4SM -RA BR OVC005
     FM271800 25013G22KT 2SM -RA BR OVC010
     FM272300 25013G22KT P6SM -SHRA SCT012 BKN020 OVC035=

USA.gov is the U.S. government's official web portal to all federal, state and local government web resources and services.